sensor_id;sensor_type;location;lat;lon;timestamp;temperature;humidity
20512;DHT22;10414;52.074;5.126;2023-02-13T00:00:46;9.30;99.90
20512;DHT22;10414;52.074;5.126;2023-02-13T00:03:12;9.30;99.90
20512;DHT22;10414;52.074;5.126;2023-02-13T00:05:41;9.50;99.90
20512;DHT22;10414;52.074;5.126;2023-02-13T00:08:08;9.60;99.90
20512;DHT22;10414;52.074;5.126;2023-02-13T00:10:35;9.30;99.90
20512;DHT22;10414;52.074;5.126;2023-02-13T00:13:02;9.00;99.90
20512;DHT22;10414;52.074;5.126;2023-02-13T00:15:29;9.00;99.90
20512;DHT22;10414;52.074;5.126;2023-02-13T00:17:56;9.10;99.90
20512;DHT22;10414;52.074;5.126;2023-02-13T00:20:23;8.80;99.90
20512;DHT22;10414;52.074;5.126;2023-02-13T00:22:51;8.90;99.90
20512;DHT22;10414;52.074;5.126;2023-02-13T00:25:18;9.00;99.90
20512;DHT22;10414;52.074;5.126;2023-02-13T00:27:45;8.90;99.90
20512;DHT22;10414;52.074;5.126;2023-02-13T00:30:13;8.60;99.90
20512;DHT22;10414;52.074;5.126;2023-02-13T00:32:40;8.50;99.90
20512;DHT22;10414;52.074;5.126;2023-02-13T00:35:07;8.50;99.90
20512;DHT22;10414;52.074;5.126;2023-02-13T00:37:34;8.50;99.90
20512;DHT22;10414;52.074;5.126;2023-02-13T00:40:02;8.60;99.90
20512;DHT22;10414;52.074;5.126;2023-02-13T00:42:29;8.80;99.90
20512;DHT22;10414;52.074;5.126;2023-02-13T00:44:56;8.90;99.90
20512;DHT22;10414;52.074;5.126;2023-02-13T00:47:23;8.90;99.90
20512;DHT22;10414;52.074;5.126;2023-02-13T00:49:49;9.10;99.90
20512;DHT22;10414;52.074;5.126;2023-02-13T00:52:16;9.20;99.90
20512;DHT22;10414;52.074;5.126;2023-02-13T00:54:43;9.10;99.90
20512;DHT22;10414;52.074;5.126;2023-02-13T00:57:13;8.90;99.90
20512;DHT22;10414;52.074;5.126;2023-02-13T00:59:40;9.00;99.90
20512;DHT22;10414;52.074;5.126;2023-02-13T01:02:06;8.90;99.90
20512;DHT22;10414;52.074;5.126;2023-02-13T01:04:33;8.90;99.90
20512;DHT22;10414;52.074;5.126;2023-02-13T01:07:00;8.80;99.90
20512;DHT22;10414;52.074;5.126;2023-02-13T01:09:27;8.90;99.90
20512;DHT22;10414;52.074;5.126;2023-02-13T01:11:54;8.90;99.90
20512;DHT22;10414;52.074;5.126;2023-02-13T01:14:22;9.00;99.90
20512;DHT22;10414;52.074;5.126;2023-02-13T01:16:49;8.90;99.90
20512;DHT22;10414;52.074;5.126;2023-02-13T01:19:15;8.70;99.90
20512;DHT22;10414;52.074;5.126;2023-02-13T01:21:43;8.80;99.90
20512;DHT22;10414;52.074;5.126;2023-02-13T01:24:09;9.20;99.90
20512;DHT22;10414;52.074;5.126;2023-02-13T01:26:36;9.10;99.90
20512;DHT22;10414;52.074;5.126;2023-02-13T01:29:03;9.20;99.90
20512;DHT22;10414;52.074;5.126;2023-02-13T01:31:32;9.10;99.90
20512;DHT22;10414;52.074;5.126;2023-02-13T01:33:59;9.00;99.90
20512;DHT22;10414;52.074;5.126;2023-02-13T01:36:26;8.70;99.90
20512;DHT22;10414;52.074;5.126;2023-02-13T01:38:53;8.80;99.90
20512;DHT22;10414;52.074;5.126;2023-02-13T01:41:21;8.90;99.90
20512;DHT22;10414;52.074;5.126;2023-02-13T01:43:51;8.90;99.90
20512;DHT22;10414;52.074;5.126;2023-02-13T01:46:22;8.90;99.90
20512;DHT22;10414;52.074;5.126;2023-02-13T01:48:54;8.80;99.90
20512;DHT22;10414;52.074;5.126;2023-02-13T01:51:24;8.80;99.90
20512;DHT22;10414;52.074;5.126;2023-02-13T01:53:55;8.60;99.90
20512;DHT22;10414;52.074;5.126;2023-02-13T01:56:27;8.60;99.90
20512;DHT22;10414;52.074;5.126;2023-02-13T01:58:59;8.80;99.90
20512;DHT22;10414;52.074;5.126;2023-02-13T02:01:27;8.90;99.90
20512;DHT22;10414;52.074;5.126;2023-02-13T02:03:59;8.90;99.90
20512;DHT22;10414;52.074;5.126;2023-02-13T02:06:33;8.80;99.90
20512;DHT22;10414;52.074;5.126;2023-02-13T02:09:02;8.80;99.90
20512;DHT22;10414;52.074;5.126;2023-02-13T02:11:34;8.70;99.90
20512;DHT22;10414;52.074;5.126;2023-02-13T02:14:02;8.90;99.90
20512;DHT22;10414;52.074;5.126;2023-02-13T02:16:30;9.10;99.90
20512;DHT22;10414;52.074;5.126;2023-02-13T02:19:01;9.00;99.90
20512;DHT22;10414;52.074;5.126;2023-02-13T02:27:30;8.70;99.90
20512;DHT22;10414;52.074;5.126;2023-02-13T02:30:16;8.70;99.90
20512;DHT22;10414;52.074;5.126;2023-02-13T02:32:59;8.70;99.90
20512;DHT22;10414;52.074;5.126;2023-02-13T02:35:33;8.90;99.90
20512;DHT22;10414;52.074;5.126;2023-02-13T02:38:10;9.10;99.90
20512;DHT22;10414;52.074;5.126;2023-02-13T02:40:52;9.10;99.90
20512;DHT22;10414;52.074;5.126;2023-02-13T02:43:35;8.90;99.90
20512;DHT22;10414;52.074;5.126;2023-02-13T02:46:10;8.80;99.90
20512;DHT22;10414;52.074;5.126;2023-02-13T02:48:44;8.80;99.90
20512;DHT22;10414;52.074;5.126;2023-02-13T02:51:35;9.00;99.90
20512;DHT22;10414;52.074;5.126;2023-02-13T02:54:08;8.90;99.90
20512;DHT22;10414;52.074;5.126;2023-02-13T02:56:53;9.10;99.90
20512;DHT22;10414;52.074;5.126;2023-02-13T02:59:22;8.80;99.90
20512;DHT22;10414;52.074;5.126;2023-02-13T03:02:09;8.80;99.90
20512;DHT22;10414;52.074;5.126;2023-02-13T03:04:58;8.90;99.90
20512;DHT22;10414;52.074;5.126;2023-02-13T03:07:43;9.00;99.90
20512;DHT22;10414;52.074;5.126;2023-02-13T03:10:14;8.90;99.90
20512;DHT22;10414;52.074;5.126;2023-02-13T03:13:03;9.10;99.90
20512;DHT22;10414;52.074;5.126;2023-02-13T03:15:50;9.00;99.90
20512;DHT22;10414;52.074;5.126;2023-02-13T03:18:38;9.20;99.90
20512;DHT22;10414;52.074;5.126;2023-02-13T03:21:31;9.40;99.90
20512;DHT22;10414;52.074;5.126;2023-02-13T03:24:23;8.90;99.90
20512;DHT22;10414;52.074;5.126;2023-02-13T03:26:56;8.80;99.90
20512;DHT22;10414;52.074;5.126;2023-02-13T03:29:36;9.00;99.90
20512;DHT22;10414;52.074;5.126;2023-02-13T03:32:27;9.10;99.90
20512;DHT22;10414;52.074;5.126;2023-02-13T03:35:06;9.10;99.90
20512;DHT22;10414;52.074;5.126;2023-02-13T03:38:02;9.10;99.90
20512;DHT22;10414;52.074;5.126;2023-02-13T03:40:35;9.00;99.90
20512;DHT22;10414;52.074;5.126;2023-02-13T03:43:25;9.10;99.90
20512;DHT22;10414;52.074;5.126;2023-02-13T03:45:53;9.00;99.90
20512;DHT22;10414;52.074;5.126;2023-02-13T03:48:25;9.20;99.90
20512;DHT22;10414;52.074;5.126;2023-02-13T03:51:13;9.50;99.90
20512;DHT22;10414;52.074;5.126;2023-02-13T03:53:44;9.30;99.90
20512;DHT22;10414;52.074;5.126;2023-02-13T03:56:13;9.30;99.90
20512;DHT22;10414;52.074;5.126;2023-02-13T03:59:00;9.00;99.90
20512;DHT22;10414;52.074;5.126;2023-02-13T04:01:45;8.90;99.90
20512;DHT22;10414;52.074;5.126;2023-02-13T04:04:20;9.00;99.90
20512;DHT22;10414;52.074;5.126;2023-02-13T04:06:51;9.10;99.90
20512;DHT22;10414;52.074;5.126;2023-02-13T04:09:24;9.40;99.90
20512;DHT22;10414;52.074;5.126;2023-02-13T04:11:56;9.20;99.90
20512;DHT22;10414;52.074;5.126;2023-02-13T04:14:26;9.20;99.90
20512;DHT22;10414;52.074;5.126;2023-02-13T04:16:56;9.70;99.90
20512;DHT22;10414;52.074;5.126;2023-02-13T04:19:25;9.50;99.90
20512;DHT22;10414;52.074;5.126;2023-02-13T04:21:55;9.10;99.90
20512;DHT22;10414;52.074;5.126;2023-02-13T04:24:24;8.80;99.90
20512;DHT22;10414;52.074;5.126;2023-02-13T04:26:52;8.90;99.90
20512;DHT22;10414;52.074;5.126;2023-02-13T04:29:19;8.90;99.90
20512;DHT22;10414;52.074;5.126;2023-02-13T04:31:46;8.90;99.90
20512;DHT22;10414;52.074;5.126;2023-02-13T04:34:13;9.00;99.90
20512;DHT22;10414;52.074;5.126;2023-02-13T04:36:40;8.80;99.90
20512;DHT22;10414;52.074;5.126;2023-02-13T04:39:07;8.80;99.90
20512;DHT22;10414;52.074;5.126;2023-02-13T04:41:35;8.80;99.90
20512;DHT22;10414;52.074;5.126;2023-02-13T04:44:02;8.80;99.90
20512;DHT22;10414;52.074;5.126;2023-02-13T04:46:28;8.60;99.90
20512;DHT22;10414;52.074;5.126;2023-02-13T04:48:56;8.70;99.90
20512;DHT22;10414;52.074;5.126;2023-02-13T04:51:22;8.80;99.90
20512;DHT22;10414;52.074;5.126;2023-02-13T04:53:49;8.90;99.90
20512;DHT22;10414;52.074;5.126;2023-02-13T04:56:16;9.10;99.90
20512;DHT22;10414;52.074;5.126;2023-02-13T04:58:44;8.80;99.90
20512;DHT22;10414;52.074;5.126;2023-02-13T05:01:12;8.70;99.90
20512;DHT22;10414;52.074;5.126;2023-02-13T05:03:39;8.80;99.90
20512;DHT22;10414;52.074;5.126;2023-02-13T05:06:06;8.60;99.90
20512;DHT22;10414;52.074;5.126;2023-02-13T05:08:33;9.00;99.90
20512;DHT22;10414;52.074;5.126;2023-02-13T05:11:02;9.00;99.90
20512;DHT22;10414;52.074;5.126;2023-02-13T05:13:29;8.90;99.90
20512;DHT22;10414;52.074;5.126;2023-02-13T05:15:57;8.90;99.90
20512;DHT22;10414;52.074;5.126;2023-02-13T05:18:24;8.90;99.90
20512;DHT22;10414;52.074;5.126;2023-02-13T05:20:51;8.80;99.90
20512;DHT22;10414;52.074;5.126;2023-02-13T05:23:31;8.90;99.90
20512;DHT22;10414;52.074;5.126;2023-02-13T05:25:58;8.90;99.90
20512;DHT22;10414;52.074;5.126;2023-02-13T05:28:25;8.80;99.90
20512;DHT22;10414;52.074;5.126;2023-02-13T05:31:11;8.90;99.90
20512;DHT22;10414;52.074;5.126;2023-02-13T05:33:38;8.90;99.90
20512;DHT22;10414;52.074;5.126;2023-02-13T05:36:06;8.80;99.90
20512;DHT22;10414;52.074;5.126;2023-02-13T05:38:33;8.80;99.90
20512;DHT22;10414;52.074;5.126;2023-02-13T05:41:00;8.90;99.90
20512;DHT22;10414;52.074;5.126;2023-02-13T05:43:27;9.10;99.90
20512;DHT22;10414;52.074;5.126;2023-02-13T05:46:01;9.20;99.90
20512;DHT22;10414;52.074;5.126;2023-02-13T05:48:29;9.50;99.90
20512;DHT22;10414;52.074;5.126;2023-02-13T05:50:56;9.50;99.90
20512;DHT22;10414;52.074;5.126;2023-02-13T05:53:23;9.20;99.90
20512;DHT22;10414;52.074;5.126;2023-02-13T05:55:50;9.10;99.90
20512;DHT22;10414;52.074;5.126;2023-02-13T05:58:18;9.40;99.90
20512;DHT22;10414;52.074;5.126;2023-02-13T06:00:45;9.40;99.90
20512;DHT22;10414;52.074;5.126;2023-02-13T06:03:12;9.40;99.90
20512;DHT22;10414;52.074;5.126;2023-02-13T06:05:40;9.40;99.90
20512;DHT22;10414;52.074;5.126;2023-02-13T06:08:07;9.30;99.90
20512;DHT22;10414;52.074;5.126;2023-02-13T06:10:34;9.10;99.90
20512;DHT22;10414;52.074;5.126;2023-02-13T06:13:01;8.90;99.90
20512;DHT22;10414;52.074;5.126;2023-02-13T06:15:28;8.80;99.90
20512;DHT22;10414;52.074;5.126;2023-02-13T06:17:55;8.80;99.90
20512;DHT22;10414;52.074;5.126;2023-02-13T06:20:22;8.80;99.90
20512;DHT22;10414;52.074;5.126;2023-02-13T06:22:50;9.10;99.90
20512;DHT22;10414;52.074;5.126;2023-02-13T06:25:17;9.00;99.90
20512;DHT22;10414;52.074;5.126;2023-02-13T06:27:45;9.10;99.90
20512;DHT22;10414;52.074;5.126;2023-02-13T06:30:14;9.10;99.90
20512;DHT22;10414;52.074;5.126;2023-02-13T06:32:41;9.30;99.90
20512;DHT22;10414;52.074;5.126;2023-02-13T06:35:08;9.20;99.90
20512;DHT22;10414;52.074;5.126;2023-02-13T06:37:35;9.50;99.90
20512;DHT22;10414;52.074;5.126;2023-02-13T06:40:04;9.40;99.90
20512;DHT22;10414;52.074;5.126;2023-02-13T06:42:32;9.30;99.90
20512;DHT22;10414;52.074;5.126;2023-02-13T06:44:58;9.30;99.90
20512;DHT22;10414;52.074;5.126;2023-02-13T06:47:27;9.10;99.90
20512;DHT22;10414;52.074;5.126;2023-02-13T06:49:57;9.20;99.90
20512;DHT22;10414;52.074;5.126;2023-02-13T06:52:24;9.00;99.90
20512;DHT22;10414;52.074;5.126;2023-02-13T06:54:51;9.10;99.90
20512;DHT22;10414;52.074;5.126;2023-02-13T06:57:19;9.00;99.90
20512;DHT22;10414;52.074;5.126;2023-02-13T06:59:46;8.80;99.90
20512;DHT22;10414;52.074;5.126;2023-02-13T07:02:13;8.70;99.90
20512;DHT22;10414;52.074;5.126;2023-02-13T07:04:40;8.60;99.90
20512;DHT22;10414;52.074;5.126;2023-02-13T07:07:07;8.60;99.90
20512;DHT22;10414;52.074;5.126;2023-02-13T07:09:34;8.60;99.90
20512;DHT22;10414;52.074;5.126;2023-02-13T07:12:02;8.60;99.90
20512;DHT22;10414;52.074;5.126;2023-02-13T07:14:30;8.40;99.90
20512;DHT22;10414;52.074;5.126;2023-02-13T07:17:00;8.20;99.90
20512;DHT22;10414;52.074;5.126;2023-02-13T07:19:27;8.30;99.90
20512;DHT22;10414;52.074;5.126;2023-02-13T07:21:54;8.20;99.90
20512;DHT22;10414;52.074;5.126;2023-02-13T07:24:24;8.30;99.90
20512;DHT22;10414;52.074;5.126;2023-02-13T07:26:51;8.30;99.90
20512;DHT22;10414;52.074;5.126;2023-02-13T07:29:18;8.60;99.90
20512;DHT22;10414;52.074;5.126;2023-02-13T07:31:46;8.80;99.90
20512;DHT22;10414;52.074;5.126;2023-02-13T07:34:13;8.80;99.90
20512;DHT22;10414;52.074;5.126;2023-02-13T07:36:40;8.70;99.90
20512;DHT22;10414;52.074;5.126;2023-02-13T07:39:07;8.90;99.90
20512;DHT22;10414;52.074;5.126;2023-02-13T07:41:36;8.90;99.90
20512;DHT22;10414;52.074;5.126;2023-02-13T07:44:03;9.10;99.90
20512;DHT22;10414;52.074;5.126;2023-02-13T07:46:30;9.30;99.90
20512;DHT22;10414;52.074;5.126;2023-02-13T07:48:58;9.30;99.90
20512;DHT22;10414;52.074;5.126;2023-02-13T07:51:25;9.40;99.90
20512;DHT22;10414;52.074;5.126;2023-02-13T07:53:54;9.60;99.90
20512;DHT22;10414;52.074;5.126;2023-02-13T07:56:21;9.70;99.90
20512;DHT22;10414;52.074;5.126;2023-02-13T07:58:51;10.40;99.90
20512;DHT22;10414;52.074;5.126;2023-02-13T08:01:18;11.10;99.90
20512;DHT22;10414;52.074;5.126;2023-02-13T08:03:47;11.50;99.90
20512;DHT22;10414;52.074;5.126;2023-02-13T08:06:18;11.10;99.90
20512;DHT22;10414;52.074;5.126;2023-02-13T08:08:45;11.30;99.90
20512;DHT22;10414;52.074;5.126;2023-02-13T08:11:22;11.40;99.90
20512;DHT22;10414;52.074;5.126;2023-02-13T08:14:07;11.90;99.90
20512;DHT22;10414;52.074;5.126;2023-02-13T08:16:34;11.50;99.90
20512;DHT22;10414;52.074;5.126;2023-02-13T08:19:01;11.50;99.90
20512;DHT22;10414;52.074;5.126;2023-02-13T08:21:30;11.60;99.90
20512;DHT22;10414;52.074;5.126;2023-02-13T08:23:57;12.30;99.90
20512;DHT22;10414;52.074;5.126;2023-02-13T08:26:24;12.70;99.90
20512;DHT22;10414;52.074;5.126;2023-02-13T08:28:51;13.30;99.90
20512;DHT22;10414;52.074;5.126;2023-02-13T08:31:17;13.40;99.90
20512;DHT22;10414;52.074;5.126;2023-02-13T08:33:44;12.40;99.90
20512;DHT22;10414;52.074;5.126;2023-02-13T08:36:11;13.00;99.90
20512;DHT22;10414;52.074;5.126;2023-02-13T08:38:40;13.80;99.90
20512;DHT22;10414;52.074;5.126;2023-02-13T08:41:07;13.70;99.90
20512;DHT22;10414;52.074;5.126;2023-02-13T08:43:35;13.10;99.90
20512;DHT22;10414;52.074;5.126;2023-02-13T08:46:02;12.10;99.90
20512;DHT22;10414;52.074;5.126;2023-02-13T08:48:29;12.50;99.90
20512;DHT22;10414;52.074;5.126;2023-02-13T08:50:56;13.10;99.90
20512;DHT22;10414;52.074;5.126;2023-02-13T08:53:23;13.20;99.90
20512;DHT22;10414;52.074;5.126;2023-02-13T08:55:55;13.10;99.90
20512;DHT22;10414;52.074;5.126;2023-02-13T08:58:22;13.00;99.90
20512;DHT22;10414;52.074;5.126;2023-02-13T09:00:50;13.60;99.90
20512;DHT22;10414;52.074;5.126;2023-02-13T09:03:17;13.80;99.90
20512;DHT22;10414;52.074;5.126;2023-02-13T09:05:44;12.40;99.90
20512;DHT22;10414;52.074;5.126;2023-02-13T09:08:14;12.10;99.90
20512;DHT22;10414;52.074;5.126;2023-02-13T09:10:42;11.40;99.90
20512;DHT22;10414;52.074;5.126;2023-02-13T09:13:10;11.50;99.90
20512;DHT22;10414;52.074;5.126;2023-02-13T09:15:38;11.70;99.90
20512;DHT22;10414;52.074;5.126;2023-02-13T09:18:06;12.30;99.90
20512;DHT22;10414;52.074;5.126;2023-02-13T09:20:32;12.40;99.90
20512;DHT22;10414;52.074;5.126;2023-02-13T09:22:59;13.00;99.90
20512;DHT22;10414;52.074;5.126;2023-02-13T09:25:28;13.10;99.90
20512;DHT22;10414;52.074;5.126;2023-02-13T09:27:54;12.30;99.90
20512;DHT22;10414;52.074;5.126;2023-02-13T09:30:23;13.00;99.90
20512;DHT22;10414;52.074;5.126;2023-02-13T09:32:50;13.00;99.90
20512;DHT22;10414;52.074;5.126;2023-02-13T09:35:17;13.30;99.90
20512;DHT22;10414;52.074;5.126;2023-02-13T09:37:44;12.40;99.90
20512;DHT22;10414;52.074;5.126;2023-02-13T09:40:22;11.80;99.90
20512;DHT22;10414;52.074;5.126;2023-02-13T09:42:52;13.40;99.90
20512;DHT22;10414;52.074;5.126;2023-02-13T09:45:20;14.20;99.90
20512;DHT22;10414;52.074;5.126;2023-02-13T09:47:51;13.40;99.90
20512;DHT22;10414;52.074;5.126;2023-02-13T09:50:21;14.00;99.90
20512;DHT22;10414;52.074;5.126;2023-02-13T09:52:51;13.90;99.90
20512;DHT22;10414;52.074;5.126;2023-02-13T09:55:22;12.70;99.90
20512;DHT22;10414;52.074;5.126;2023-02-13T09:57:55;12.20;99.90
20512;DHT22;10414;52.074;5.126;2023-02-13T10:00:28;13.40;99.90
20512;DHT22;10414;52.074;5.126;2023-02-13T10:03:12;14.20;99.90
20512;DHT22;10414;52.074;5.126;2023-02-13T10:06:03;15.80;99.90
20512;DHT22;10414;52.074;5.126;2023-02-13T10:08:43;17.90;99.90
20512;DHT22;10414;52.074;5.126;2023-02-13T10:11:26;15.90;99.90
20512;DHT22;10414;52.074;5.126;2023-02-13T10:14:07;15.30;99.90
20512;DHT22;10414;52.074;5.126;2023-02-13T10:16:38;16.00;99.90
20512;DHT22;10414;52.074;5.126;2023-02-13T10:19:15;16.10;99.90
20512;DHT22;10414;52.074;5.126;2023-02-13T10:21:50;15.70;99.90
20512;DHT22;10414;52.074;5.126;2023-02-13T10:24:25;14.50;99.90
20512;DHT22;10414;52.074;5.126;2023-02-13T10:26:56;15.40;99.90
20512;DHT22;10414;52.074;5.126;2023-02-13T10:29:27;15.70;99.90
20512;DHT22;10414;52.074;5.126;2023-02-13T10:32:18;15.90;99.90
20512;DHT22;10414;52.074;5.126;2023-02-13T10:34:50;14.30;99.90
20512;DHT22;10414;52.074;5.126;2023-02-13T10:37:21;13.30;99.90
20512;DHT22;10414;52.074;5.126;2023-02-13T10:39:49;13.90;99.90
20512;DHT22;10414;52.074;5.126;2023-02-13T10:42:22;14.40;99.90
20512;DHT22;10414;52.074;5.126;2023-02-13T10:45:12;14.20;99.90
20512;DHT22;10414;52.074;5.126;2023-02-13T10:47:50;15.00;99.90
20512;DHT22;10414;52.074;5.126;2023-02-13T10:50:27;14.80;99.90
20512;DHT22;10414;52.074;5.126;2023-02-13T10:53:03;14.40;99.90
20512;DHT22;10414;52.074;5.126;2023-02-13T10:55:59;14.50;99.90
20512;DHT22;10414;52.074;5.126;2023-02-13T11:01:21;15.20;99.90
20512;DHT22;10414;52.074;5.126;2023-02-13T11:04:02;16.30;99.90
20512;DHT22;10414;52.074;5.126;2023-02-13T11:06:31;17.70;99.90
20512;DHT22;10414;52.074;5.126;2023-02-13T11:09:00;19.00;99.90
20512;DHT22;10414;52.074;5.126;2023-02-13T11:11:28;16.50;99.90
20512;DHT22;10414;52.074;5.126;2023-02-13T11:14:12;16.40;99.90
20512;DHT22;10414;52.074;5.126;2023-02-13T11:16:50;16.60;99.90
20512;DHT22;10414;52.074;5.126;2023-02-13T11:19:21;16.00;99.90
20512;DHT22;10414;52.074;5.126;2023-02-13T11:21:54;15.80;99.90
20512;DHT22;10414;52.074;5.126;2023-02-13T11:24:23;15.30;99.90
20512;DHT22;10414;52.074;5.126;2023-02-13T11:26:53;15.90;99.90
20512;DHT22;10414;52.074;5.126;2023-02-13T11:29:24;16.20;99.90
20512;DHT22;10414;52.074;5.126;2023-02-13T11:32:06;15.50;99.90
20512;DHT22;10414;52.074;5.126;2023-02-13T11:34:37;15.10;99.90
20512;DHT22;10414;52.074;5.126;2023-02-13T11:37:19;14.00;99.90
20512;DHT22;10414;52.074;5.126;2023-02-13T11:39:47;14.30;99.90
20512;DHT22;10414;52.074;5.126;2023-02-13T11:42:16;15.00;99.90
20512;DHT22;10414;52.074;5.126;2023-02-13T11:44:50;14.20;99.90
20512;DHT22;10414;52.074;5.126;2023-02-13T11:47:33;13.80;99.90
20512;DHT22;10414;52.074;5.126;2023-02-13T11:50:01;13.80;99.90
20512;DHT22;10414;52.074;5.126;2023-02-13T11:52:31;13.10;99.90
20512;DHT22;10414;52.074;5.126;2023-02-13T11:55:04;13.10;99.90
20512;DHT22;10414;52.074;5.126;2023-02-13T11:57:35;12.30;99.90
20512;DHT22;10414;52.074;5.126;2023-02-13T12:00:25;12.60;99.90
20512;DHT22;10414;52.074;5.126;2023-02-13T12:02:52;12.80;99.90
20512;DHT22;10414;52.074;5.126;2023-02-13T12:05:21;12.60;99.90
20512;DHT22;10414;52.074;5.126;2023-02-13T12:07:50;12.30;99.90
20512;DHT22;10414;52.074;5.126;2023-02-13T12:10:22;12.40;99.90
20512;DHT22;10414;52.074;5.126;2023-02-13T12:12:53;13.10;99.90
20512;DHT22;10414;52.074;5.126;2023-02-13T12:15:23;13.50;99.90
20512;DHT22;10414;52.074;5.126;2023-02-13T12:18:01;12.50;99.90
20512;DHT22;10414;52.074;5.126;2023-02-13T12:20:35;12.80;99.90
20512;DHT22;10414;52.074;5.126;2023-02-13T12:23:11;12.80;99.90
20512;DHT22;10414;52.074;5.126;2023-02-13T12:25:58;12.80;99.90
20512;DHT22;10414;52.074;5.126;2023-02-13T12:28:35;12.50;99.90
20512;DHT22;10414;52.074;5.126;2023-02-13T12:31:27;12.20;99.90
20512;DHT22;10414;52.074;5.126;2023-02-13T12:34:16;12.20;99.90
20512;DHT22;10414;52.074;5.126;2023-02-13T12:36:57;11.90;99.90
20512;DHT22;10414;52.074;5.126;2023-02-13T12:39:32;11.90;99.90
20512;DHT22;10414;52.074;5.126;2023-02-13T12:42:20;12.20;99.90
20512;DHT22;10414;52.074;5.126;2023-02-13T12:45:13;12.50;99.90
20512;DHT22;10414;52.074;5.126;2023-02-13T12:47:51;12.30;99.90
20512;DHT22;10414;52.074;5.126;2023-02-13T12:50:50;12.40;99.90
20512;DHT22;10414;52.074;5.126;2023-02-13T12:56:32;12.00;99.90
20512;DHT22;10414;52.074;5.126;2023-02-13T12:59:07;12.10;99.90
20512;DHT22;10414;52.074;5.126;2023-02-13T13:04:37;12.60;99.90
20512;DHT22;10414;52.074;5.126;2023-02-13T13:07:14;12.50;99.90
20512;DHT22;10414;52.074;5.126;2023-02-13T13:10:19;12.50;99.90
20512;DHT22;10414;52.074;5.126;2023-02-13T13:12:55;12.50;99.90
20512;DHT22;10414;52.074;5.126;2023-02-13T13:15:31;12.30;99.90
20512;DHT22;10414;52.074;5.126;2023-02-13T13:18:12;12.50;99.90
20512;DHT22;10414;52.074;5.126;2023-02-13T13:20:53;12.40;99.90
20512;DHT22;10414;52.074;5.126;2023-02-13T13:23:28;12.80;99.90
20512;DHT22;10414;52.074;5.126;2023-02-13T13:26:04;13.10;99.90
20512;DHT22;10414;52.074;5.126;2023-02-13T13:28:38;12.40;99.90
20512;DHT22;10414;52.074;5.126;2023-02-13T13:31:06;12.40;99.90
20512;DHT22;10414;52.074;5.126;2023-02-13T13:33:34;12.50;99.90
20512;DHT22;10414;52.074;5.126;2023-02-13T13:36:06;12.90;99.90
20512;DHT22;10414;52.074;5.126;2023-02-13T13:38:44;12.70;99.90
20512;DHT22;10414;52.074;5.126;2023-02-13T13:41:20;12.60;99.90
20512;DHT22;10414;52.074;5.126;2023-02-13T13:44:12;12.20;99.90
20512;DHT22;10414;52.074;5.126;2023-02-13T13:46:49;12.50;99.90
20512;DHT22;10414;52.074;5.126;2023-02-13T13:49:28;12.70;99.90
20512;DHT22;10414;52.074;5.126;2023-02-13T13:52:18;12.90;99.90
20512;DHT22;10414;52.074;5.126;2023-02-13T13:54:45;12.40;99.90
20512;DHT22;10414;52.074;5.126;2023-02-13T13:57:16;12.40;99.90
20512;DHT22;10414;52.074;5.126;2023-02-13T14:03:22;12.70;99.90
20512;DHT22;10414;52.074;5.126;2023-02-13T14:06:04;13.10;99.90
20512;DHT22;10414;52.074;5.126;2023-02-13T14:09:05;12.90;99.90
20512;DHT22;10414;52.074;5.126;2023-02-13T14:11:43;12.90;99.90
20512;DHT22;10414;52.074;5.126;2023-02-13T14:17:52;13.00;99.90
20512;DHT22;10414;52.074;5.126;2023-02-13T14:20:30;12.70;99.90
20512;DHT22;10414;52.074;5.126;2023-02-13T14:23:06;12.30;99.90
20512;DHT22;10414;52.074;5.126;2023-02-13T14:25:34;12.20;99.90
20512;DHT22;10414;52.074;5.126;2023-02-13T14:28:02;12.20;99.90
20512;DHT22;10414;52.074;5.126;2023-02-13T14:30:31;12.20;99.90
20512;DHT22;10414;52.074;5.126;2023-02-13T14:33:02;12.10;99.90
20512;DHT22;10414;52.074;5.126;2023-02-13T14:35:33;12.00;99.90
20512;DHT22;10414;52.074;5.126;2023-02-13T14:38:03;12.00;99.90
20512;DHT22;10414;52.074;5.126;2023-02-13T14:40:45;12.00;99.90
20512;DHT22;10414;52.074;5.126;2023-02-13T14:43:33;12.20;99.90
20512;DHT22;10414;52.074;5.126;2023-02-13T14:46:14;12.30;99.90
20512;DHT22;10414;52.074;5.126;2023-02-13T14:48:51;12.10;99.90
20512;DHT22;10414;52.074;5.126;2023-02-13T14:51:28;12.10;99.90
20512;DHT22;10414;52.074;5.126;2023-02-13T14:54:03;12.10;99.90
20512;DHT22;10414;52.074;5.126;2023-02-13T14:56:31;12.20;99.90
20512;DHT22;10414;52.074;5.126;2023-02-13T14:59:04;12.20;99.90
20512;DHT22;10414;52.074;5.126;2023-02-13T15:01:43;12.20;99.90
20512;DHT22;10414;52.074;5.126;2023-02-13T15:04:16;12.30;99.90
20512;DHT22;10414;52.074;5.126;2023-02-13T15:06:45;12.40;99.90
20512;DHT22;10414;52.074;5.126;2023-02-13T15:09:19;12.20;99.90
20512;DHT22;10414;52.074;5.126;2023-02-13T15:11:47;12.30;99.90
20512;DHT22;10414;52.074;5.126;2023-02-13T15:14:16;12.30;99.90
20512;DHT22;10414;52.074;5.126;2023-02-13T15:16:44;12.30;99.90
20512;DHT22;10414;52.074;5.126;2023-02-13T15:19:14;12.30;99.90
20512;DHT22;10414;52.074;5.126;2023-02-13T15:21:49;12.50;99.90
20512;DHT22;10414;52.074;5.126;2023-02-13T15:24:16;12.30;99.90
20512;DHT22;10414;52.074;5.126;2023-02-13T15:26:50;12.10;99.90
20512;DHT22;10414;52.074;5.126;2023-02-13T15:29:19;12.10;99.90
20512;DHT22;10414;52.074;5.126;2023-02-13T15:31:46;12.10;99.90
20512;DHT22;10414;52.074;5.126;2023-02-13T15:34:21;12.10;99.90
20512;DHT22;10414;52.074;5.126;2023-02-13T15:36:50;12.00;99.90
20512;DHT22;10414;52.074;5.126;2023-02-13T15:39:21;11.90;99.90
20512;DHT22;10414;52.074;5.126;2023-02-13T15:41:51;12.10;99.90
20512;DHT22;10414;52.074;5.126;2023-02-13T15:44:21;12.00;99.90
20512;DHT22;10414;52.074;5.126;2023-02-13T15:46:49;12.10;99.90
20512;DHT22;10414;52.074;5.126;2023-02-13T15:49:18;12.10;99.90
20512;DHT22;10414;52.074;5.126;2023-02-13T15:51:46;12.20;99.90
20512;DHT22;10414;52.074;5.126;2023-02-13T15:54:26;12.10;99.90
20512;DHT22;10414;52.074;5.126;2023-02-13T15:56:55;12.00;99.90
20512;DHT22;10414;52.074;5.126;2023-02-13T15:59:25;11.90;99.90
20512;DHT22;10414;52.074;5.126;2023-02-13T16:01:54;11.80;99.90
20512;DHT22;10414;52.074;5.126;2023-02-13T16:04:22;11.90;99.90
20512;DHT22;10414;52.074;5.126;2023-02-13T16:06:53;11.80;99.90
20512;DHT22;10414;52.074;5.126;2023-02-13T16:09:31;11.80;99.90
20512;DHT22;10414;52.074;5.126;2023-02-13T16:12:03;11.80;99.90
20512;DHT22;10414;52.074;5.126;2023-02-13T16:14:33;11.80;99.90
20512;DHT22;10414;52.074;5.126;2023-02-13T16:17:03;11.80;99.90
20512;DHT22;10414;52.074;5.126;2023-02-13T16:19:37;12.00;99.90
20512;DHT22;10414;52.074;5.126;2023-02-13T16:22:20;11.80;99.90
20512;DHT22;10414;52.074;5.126;2023-02-13T16:24:55;11.90;99.90
20512;DHT22;10414;52.074;5.126;2023-02-13T16:27:26;11.70;99.90
20512;DHT22;10414;52.074;5.126;2023-02-13T16:29:55;11.60;99.90